createdAt,value
2023-02-19T00:00:59.273Z,0.00
2023-02-19T00:01:59.829Z,0.00
2023-02-19T00:03:01.655Z,0.00
2023-02-19T00:03:59.975Z,0.00
2023-02-19T00:04:59.778Z,0.00
2023-02-19T00:06:00.284Z,0.00
2023-02-19T00:07:00.438Z,0.00
2023-02-19T00:07:59.520Z,0.00
2023-02-19T00:08:59.668Z,0.00
2023-02-19T00:09:59.480Z,0.00
2023-02-19T00:10:59.802Z,0.00
2023-02-19T00:11:59.612Z,0.00
2023-02-19T00:12:59.337Z,0.00
2023-02-19T00:14:01.069Z,0.00
2023-02-19T00:15:00.365Z,0.00
2023-02-19T00:16:21.511Z,0.00
2023-02-19T00:17:01.306Z,0.00
2023-02-19T00:17:58.944Z,0.00
2023-02-19T00:19:00.038Z,0.00
2023-02-19T00:20:03.609Z,0.00
2023-02-19T00:20:58.937Z,0.00
2023-02-19T00:21:59.638Z,0.00
2023-02-19T00:23:01.534Z,0.00
2023-02-19T00:23:59.883Z,0.00
2023-02-19T00:24:59.361Z,0.00
2023-02-19T00:26:08.919Z,0.00
2023-02-19T00:27:04.409Z,0.00
2023-02-19T00:27:59.277Z,0.00
2023-02-19T00:28:59.186Z,0.00
2023-02-19T00:30:00.326Z,0.00
2023-02-19T00:31:01.801Z,0.00
2023-02-19T00:31:59.614Z,0.00
2023-02-19T00:32:59.833Z,0.00
2023-02-19T00:33:59.962Z,0.00
2023-02-19T00:35:01.089Z,0.00
2023-02-19T00:36:02.281Z,0.00
2023-02-19T00:37:02.311Z,0.00
2023-02-19T00:40:30.577Z,0.00
2023-02-19T00:41:19.050Z,0.00
2023-02-19T00:42:18.819Z,0.00
2023-02-19T00:43:18.737Z,0.00
2023-02-19T00:44:18.716Z,0.00
2023-02-19T00:45:18.721Z,0.00
2023-02-19T00:46:18.712Z,0.00
2023-02-19T00:47:18.757Z,0.00
2023-02-19T00:48:18.628Z,0.00
2023-02-19T00:49:18.750Z,0.00
2023-02-19T00:50:19.464Z,0.00
2023-02-19T00:51:18.570Z,0.00
2023-02-19T00:52:18.655Z,0.00
2023-02-19T00:53:18.579Z,0.00
2023-02-19T00:54:18.595Z,0.00
2023-02-19T00:55:21.510Z,0.00
2023-02-19T00:56:19.242Z,0.00
2023-02-19T00:57:18.516Z,0.00
2023-02-19T00:58:18.894Z,0.00
2023-02-19T00:59:18.550Z,0.00
2023-02-19T01:00:18.538Z,0.00
2023-02-19T01:01:18.591Z,0.00
2023-02-19T01:02:18.540Z,0.00
2023-02-19T01:03:18.472Z,0.00
2023-02-19T01:04:18.442Z,0.00
2023-02-19T01:05:21.535Z,0.00
2023-02-19T01:06:19.702Z,0.00
2023-02-19T01:07:19.541Z,0.00
2023-02-19T01:08:18.858Z,0.00
2023-02-19T01:09:41.328Z,0.00
2023-02-19T01:10:18.343Z,0.00
2023-02-19T01:11:19.308Z,0.00
2023-02-19T01:12:20.468Z,0.00
2023-02-19T01:13:18.233Z,0.00
2023-02-19T01:14:25.008Z,0.00
2023-02-19T01:15:22.688Z,0.00
2023-02-19T01:16:20.169Z,0.00
2023-02-19T01:17:18.361Z,0.00
2023-02-19T01:20:18.320Z,0.00
2023-02-19T01:21:13.233Z,0.00
2023-02-19T01:22:05.188Z,0.00
2023-02-19T01:23:05.444Z,0.00
2023-02-19T01:24:04.734Z,0.00
2023-02-19T01:25:09.313Z,0.00
2023-02-19T01:26:06.005Z,0.00
2023-02-19T01:27:03.702Z,0.00
2023-02-19T01:28:08.154Z,0.00
2023-02-19T01:29:05.686Z,0.00
2023-02-19T01:31:53.345Z,0.00
2023-02-19T01:32:51.571Z,0.00
2023-02-19T01:33:52.566Z,0.00
2023-02-19T01:34:52.148Z,0.00
2023-02-19T01:35:51.490Z,0.00
2023-02-19T01:36:49.178Z,0.00
2023-02-19T01:37:48.947Z,0.00
2023-02-19T01:38:49.400Z,0.00
2023-02-19T01:39:50.815Z,0.00
2023-02-19T01:40:49.861Z,0.00
2023-02-19T01:41:49.332Z,0.00
2023-02-19T01:42:49.743Z,0.00
2023-02-19T01:43:50.305Z,0.00
2023-02-19T01:44:52.077Z,0.00
2023-02-19T01:45:48.843Z,0.00
2023-02-19T01:46:50.234Z,0.00
2023-02-19T01:47:49.834Z,0.00
2023-02-19T01:48:51.721Z,0.00
2023-02-19T01:49:50.180Z,0.00
2023-02-19T01:50:50.404Z,0.00
2023-02-19T01:51:49.153Z,0.00
2023-02-19T01:52:50.656Z,0.00
2023-02-19T01:53:50.191Z,0.00
2023-02-19T01:54:50.946Z,0.00
2023-02-19T01:55:48.902Z,0.00
2023-02-19T01:56:49.743Z,0.00
2023-02-19T01:57:48.607Z,0.00
2023-02-19T01:58:48.505Z,0.00
2023-02-19T01:59:49.336Z,0.00
2023-02-19T02:00:49.421Z,0.00
2023-02-19T02:01:48.687Z,0.00
2023-02-19T02:02:49.061Z,0.00
2023-02-19T02:05:17.737Z,0.00
2023-02-19T02:06:15.298Z,0.00
2023-02-19T02:07:11.000Z,0.00
2023-02-19T02:08:11.953Z,0.00
2023-02-19T02:09:11.410Z,0.00
2023-02-19T02:10:10.717Z,0.00
2023-02-19T02:11:11.091Z,0.00
2023-02-19T02:15:23.286Z,0.00
2023-02-19T02:16:21.359Z,0.00
2023-02-19T02:17:20.047Z,0.00
2023-02-19T02:18:24.316Z,0.00
2023-02-19T02:19:20.502Z,0.00
2023-02-19T02:20:21.545Z,0.00
2023-02-19T02:21:20.236Z,0.00
2023-02-19T02:22:20.174Z,0.00
2023-02-19T02:23:21.661Z,0.00
2023-02-19T02:24:23.920Z,0.00
2023-02-19T02:25:21.183Z,0.00
2023-02-19T02:26:20.815Z,0.00
2023-02-19T02:29:45.674Z,0.00
2023-02-19T02:30:16.760Z,0.00
2023-02-19T02:31:16.726Z,0.00
2023-02-19T02:32:16.147Z,0.00
2023-02-19T02:33:18.731Z,0.00
2023-02-19T02:34:18.642Z,0.00
2023-02-19T02:35:20.835Z,0.00
2023-02-19T02:36:16.757Z,0.00
2023-02-19T02:37:15.734Z,0.00
2023-02-19T02:38:15.683Z,0.00
2023-02-19T02:39:15.698Z,0.00
2023-02-19T02:40:15.760Z,0.00
2023-02-19T02:41:15.701Z,0.00
2023-02-19T02:42:15.762Z,0.00
2023-02-19T02:43:15.583Z,0.00
2023-02-19T02:44:15.689Z,0.00
2023-02-19T02:45:15.588Z,0.00
2023-02-19T02:46:15.636Z,0.00
2023-02-19T02:47:15.631Z,0.00
2023-02-19T02:48:15.509Z,0.00
2023-02-19T02:49:15.630Z,0.00
2023-02-19T02:50:15.607Z,0.00
2023-02-19T02:51:15.522Z,0.00
2023-02-19T02:52:15.426Z,0.00
2023-02-19T02:53:15.523Z,0.00
2023-02-19T02:54:15.439Z,0.00
2023-02-19T02:55:15.439Z,0.00
2023-02-19T02:56:15.548Z,0.00
2023-02-19T02:57:15.460Z,0.00
2023-02-19T02:58:15.395Z,0.00
2023-02-19T02:59:15.570Z,0.00
2023-02-19T03:00:18.490Z,0.00
2023-02-19T03:01:16.927Z,0.00
2023-02-19T03:02:16.782Z,0.00
2023-02-19T03:03:15.596Z,0.00
2023-02-19T03:04:16.989Z,0.00
2023-02-19T03:05:17.600Z,0.00
2023-02-19T03:07:40.161Z,0.00
2023-02-19T03:08:31.544Z,0.00
2023-02-19T03:09:30.472Z,0.00
2023-02-19T03:10:29.477Z,0.00
2023-02-19T03:11:30.336Z,0.00
2023-02-19T03:12:29.496Z,0.00
2023-02-19T03:13:29.726Z,0.00
2023-02-19T03:14:29.397Z,0.00
2023-02-19T03:15:29.448Z,0.00
2023-02-19T03:16:29.392Z,0.00
2023-02-19T03:17:29.325Z,0.00
2023-02-19T03:18:29.327Z,0.00
2023-02-19T03:19:29.252Z,0.00
2023-02-19T03:20:29.377Z,0.00
2023-02-19T03:21:29.267Z,0.00
2023-02-19T03:22:29.292Z,0.00
2023-02-19T03:23:29.147Z,0.00
2023-02-19T03:24:29.176Z,0.00
2023-02-19T03:25:29.278Z,0.00
2023-02-19T03:26:29.210Z,0.00
2023-02-19T03:27:29.198Z,0.00
2023-02-19T03:28:29.123Z,0.00
2023-02-19T03:29:29.206Z,0.00
2023-02-19T03:30:29.113Z,0.00
2023-02-19T03:31:29.179Z,0.00
2023-02-19T03:32:29.126Z,0.00
2023-02-19T03:33:29.033Z,0.00
2023-02-19T03:34:29.179Z,0.00
2023-02-19T03:35:29.070Z,0.00
2023-02-19T03:36:29.044Z,0.00
2023-02-19T03:37:30.038Z,0.00
2023-02-19T03:38:29.382Z,0.00
2023-02-19T03:39:29.808Z,0.00
2023-02-19T03:40:29.904Z,0.00
2023-02-19T03:41:30.231Z,0.00
2023-02-19T03:42:30.405Z,0.00
2023-02-19T03:43:50.763Z,0.00
2023-02-19T03:44:29.663Z,0.00
2023-02-19T03:45:35.454Z,0.00
2023-02-19T03:46:29.801Z,0.00
2023-02-19T03:47:29.203Z,0.00
2023-02-19T03:48:29.212Z,0.00
2023-02-19T03:49:30.847Z,0.00
2023-02-19T03:50:32.044Z,0.00
2023-02-19T03:51:30.675Z,0.00
2023-02-19T03:52:28.938Z,0.00
2023-02-19T03:53:29.397Z,0.00
2023-02-19T03:54:31.415Z,0.00
2023-02-19T03:55:29.203Z,0.00
2023-02-19T03:56:29.265Z,0.00
2023-02-19T03:57:31.921Z,0.00
2023-02-19T03:58:30.003Z,0.00
2023-02-19T03:59:30.004Z,0.00
2023-02-19T04:00:29.045Z,0.00
2023-02-19T04:01:31.671Z,0.00
2023-02-19T04:02:30.582Z,0.00
2023-02-19T04:03:29.875Z,0.00
2023-02-19T04:04:30.768Z,0.00
2023-02-19T04:05:31.110Z,0.00
2023-02-19T04:06:30.538Z,0.00
2023-02-19T04:07:29.239Z,0.00
2023-02-19T04:08:29.169Z,0.00
2023-02-19T04:09:30.168Z,0.00
2023-02-19T04:10:30.549Z,0.00
2023-02-19T04:11:28.909Z,0.00
2023-02-19T04:12:29.189Z,0.00
2023-02-19T04:13:30.359Z,0.00
2023-02-19T04:14:29.651Z,0.00
2023-02-19T04:15:28.942Z,0.00
2023-02-19T04:16:31.014Z,0.00
2023-02-19T04:17:30.965Z,0.00
2023-02-19T04:18:29.678Z,0.00
2023-02-19T04:19:31.645Z,0.00
2023-02-19T04:20:30.898Z,0.00
2023-02-19T04:21:30.885Z,0.00
2023-02-19T04:22:31.578Z,0.00
2023-02-19T04:23:29.615Z,0.00
2023-02-19T04:24:30.283Z,0.00
2023-02-19T04:25:28.600Z,0.00
2023-02-19T04:26:29.510Z,0.00
2023-02-19T04:27:29.157Z,0.00
2023-02-19T04:28:29.498Z,0.00
2023-02-19T04:29:30.554Z,0.00
2023-02-19T04:30:29.304Z,0.00
2023-02-19T04:31:29.852Z,0.00
2023-02-19T04:32:28.401Z,0.00
2023-02-19T04:33:30.056Z,0.00
2023-02-19T04:34:29.146Z,0.00
2023-02-19T04:35:29.084Z,0.00
2023-02-19T04:36:28.426Z,0.00
2023-02-19T04:37:29.478Z,0.00
2023-02-19T04:38:31.099Z,0.00
2023-02-19T04:39:28.713Z,0.00
2023-02-19T04:40:29.353Z,0.00
2023-02-19T04:41:29.135Z,0.00
2023-02-19T04:42:29.344Z,0.00
2023-02-19T04:43:29.924Z,0.00
2023-02-19T04:44:29.915Z,0.00
2023-02-19T04:45:28.811Z,0.00
2023-02-19T04:46:28.472Z,0.00
2023-02-19T04:47:28.413Z,0.00
2023-02-19T04:48:29.617Z,0.00
2023-02-19T04:49:29.733Z,0.00
2023-02-19T04:50:29.161Z,0.00
2023-02-19T04:51:28.926Z,0.00
2023-02-19T04:52:29.002Z,0.00
2023-02-19T04:53:29.496Z,0.00
2023-02-19T04:54:29.409Z,0.00
2023-02-19T04:55:29.129Z,0.00
2023-02-19T04:56:28.253Z,0.00
2023-02-19T04:57:30.185Z,0.00
2023-02-19T04:58:29.008Z,0.00
2023-02-19T04:59:28.575Z,0.00
2023-02-19T05:00:30.289Z,0.00
2023-02-19T05:02:01.936Z,0.00
2023-02-19T05:02:30.751Z,0.00
2023-02-19T05:03:30.676Z,0.00
2023-02-19T05:04:28.708Z,0.00
2023-02-19T05:05:28.615Z,0.00
2023-02-19T05:06:29.107Z,0.00
2023-02-19T05:07:30.854Z,0.00
2023-02-19T05:08:30.171Z,0.00
2023-02-19T05:09:29.447Z,0.00
2023-02-19T05:10:29.029Z,0.00
2023-02-19T05:11:29.675Z,0.00
2023-02-19T05:12:28.396Z,0.00
2023-02-19T05:13:28.511Z,0.00
2023-02-19T05:14:32.271Z,0.00
2023-02-19T05:15:29.659Z,0.00
2023-02-19T05:16:28.706Z,0.00
2023-02-19T05:17:31.096Z,0.00
2023-02-19T05:18:33.594Z,0.00
2023-02-19T05:19:32.275Z,0.00
2023-02-19T05:20:27.855Z,0.00
2023-02-19T05:21:30.529Z,0.00
2023-02-19T05:22:28.474Z,0.00
2023-02-19T05:23:29.720Z,0.00
2023-02-19T05:24:35.629Z,0.00
2023-02-19T05:25:28.365Z,0.00
2023-02-19T05:26:29.518Z,0.00
2023-02-19T05:27:28.512Z,0.00
2023-02-19T05:28:29.587Z,0.00
2023-02-19T05:29:29.134Z,0.00
2023-02-19T05:30:30.820Z,0.00
2023-02-19T05:31:29.699Z,0.00
2023-02-19T05:32:30.982Z,0.00
2023-02-19T05:33:30.374Z,0.00
2023-02-19T05:34:28.620Z,0.00
2023-02-19T05:35:28.192Z,0.00
2023-02-19T05:36:28.704Z,0.00
2023-02-19T05:37:28.891Z,0.00
2023-02-19T05:38:29.617Z,0.00
2023-02-19T05:39:27.766Z,0.00
2023-02-19T05:40:29.885Z,0.00
2023-02-19T05:41:28.869Z,0.00
2023-02-19T05:42:27.967Z,0.00
2023-02-19T05:43:27.785Z,0.00
2023-02-19T05:44:31.994Z,0.00
2023-02-19T05:45:29.231Z,0.00
2023-02-19T05:46:27.700Z,0.00
2023-02-19T05:47:28.570Z,0.00
2023-02-19T05:48:28.942Z,0.00
2023-02-19T05:49:27.844Z,0.00
2023-02-19T05:50:28.673Z,0.00
2023-02-19T05:51:27.784Z,0.00
2023-02-19T05:52:32.266Z,0.00
2023-02-19T05:53:28.476Z,0.00
2023-02-19T05:54:28.682Z,0.00
2023-02-19T05:55:28.008Z,0.00
2023-02-19T05:56:28.712Z,4.00
2023-02-19T05:57:30.454Z,4.00
2023-02-19T05:58:28.651Z,4.00
2023-02-19T05:59:28.372Z,0.00
2023-02-19T06:00:28.508Z,4.00
2023-02-19T06:01:30.766Z,4.00
2023-02-19T06:02:27.879Z,4.00
2023-02-19T06:03:27.647Z,8.00
2023-02-19T06:04:27.374Z,8.00
2023-02-19T06:05:28.377Z,8.00
2023-02-19T06:06:29.216Z,12.00
2023-02-19T06:07:27.570Z,12.00
2023-02-19T06:08:28.770Z,16.00
2023-02-19T06:09:30.139Z,20.00
2023-02-19T06:10:28.531Z,20.00
2023-02-19T06:11:27.467Z,28.00
2023-02-19T06:12:27.593Z,32.00
2023-02-19T06:13:28.302Z,40.00
2023-02-19T06:14:27.396Z,44.00
2023-02-19T06:15:28.535Z,52.00
2023-02-19T06:16:28.317Z,60.00
2023-02-19T06:17:27.530Z,72.00
2023-02-19T06:18:28.238Z,80.00
2023-02-19T06:19:28.489Z,92.00
2023-02-19T06:20:28.168Z,104.00
2023-02-19T06:21:28.912Z,116.00
2023-02-19T06:22:28.149Z,132.00
2023-02-19T06:23:27.673Z,148.00
2023-02-19T06:24:27.765Z,164.00
2023-02-19T06:25:27.622Z,184.00
2023-02-19T06:26:27.950Z,200.00
2023-02-19T06:27:27.986Z,224.00
2023-02-19T06:28:29.565Z,244.00
2023-02-19T06:29:35.545Z,268.00
2023-02-19T06:30:27.910Z,292.00
2023-02-19T06:31:29.788Z,324.00
2023-02-19T06:34:27.482Z,408.00
2023-02-19T06:35:14.753Z,440.00
2023-02-19T06:36:12.604Z,472.00
2023-02-19T06:37:14.898Z,504.00
2023-02-19T06:38:14.451Z,536.00
2023-02-19T06:39:13.521Z,568.00
2023-02-19T06:40:13.263Z,608.00
2023-02-19T06:41:12.819Z,652.00
2023-02-19T06:42:12.352Z,704.00
2023-02-19T06:43:12.258Z,764.00
2023-02-19T06:44:12.388Z,836.00
2023-02-19T06:45:12.366Z,924.00
2023-02-19T06:46:12.656Z,1024.00
2023-02-19T06:47:12.271Z,1132.00
2023-02-19T06:48:12.293Z,1236.00
2023-02-19T06:49:15.202Z,1324.00
2023-02-19T06:50:12.225Z,1392.00
2023-02-19T06:51:15.734Z,1452.00
2023-02-19T06:52:12.236Z,1496.00
2023-02-19T06:53:12.310Z,1540.00
2023-02-19T06:54:12.151Z,1584.00
2023-02-19T06:55:12.135Z,1628.00
2023-02-19T06:56:12.175Z,1672.00
2023-02-19T06:57:12.242Z,1724.00
2023-02-19T06:58:12.072Z,1780.00
2023-02-19T06:59:12.892Z,1836.00
2023-02-19T07:00:12.158Z,1876.00
2023-02-19T07:01:12.593Z,1892.00
2023-02-19T07:02:12.100Z,1884.00
2023-02-19T07:03:12.098Z,1864.00
2023-02-19T07:04:12.154Z,1844.00
2023-02-19T07:05:11.986Z,1828.00
2023-02-19T07:06:12.082Z,1836.00
2023-02-19T07:07:12.449Z,1832.00
2023-02-19T07:08:11.926Z,1832.00
2023-02-19T07:09:12.031Z,1844.00
2023-02-19T07:10:11.946Z,1868.00
2023-02-19T07:11:12.252Z,1892.00
2023-02-19T07:12:12.682Z,1936.00
2023-02-19T07:13:11.948Z,1988.00
2023-02-19T07:14:11.961Z,2044.00
2023-02-19T07:15:11.876Z,2128.00
2023-02-19T07:16:12.024Z,2216.00
2023-02-19T07:17:11.970Z,2312.00
2023-02-19T07:18:12.000Z,2448.00
2023-02-19T07:19:12.152Z,2596.00
2023-02-19T07:20:11.798Z,2772.00
2023-02-19T07:21:12.129Z,2980.00
2023-02-19T07:22:12.224Z,3216.00
2023-02-19T07:23:11.715Z,3444.00
2023-02-19T07:24:11.811Z,3648.00
2023-02-19T07:25:11.827Z,3824.00
2023-02-19T07:26:11.735Z,3968.00
2023-02-19T07:27:11.745Z,4084.00
2023-02-19T07:28:12.169Z,4188.00
2023-02-19T07:29:11.751Z,4252.00
2023-02-19T07:30:11.692Z,4256.00
2023-02-19T07:31:12.073Z,4244.00
2023-02-19T07:32:11.826Z,4224.00
2023-02-19T07:33:11.694Z,4204.00
2023-02-19T07:34:11.674Z,4188.00
2023-02-19T07:35:11.574Z,4224.00
2023-02-19T07:36:11.607Z,4256.00
2023-02-19T07:37:11.626Z,4284.00
2023-02-19T07:38:11.743Z,4340.00
2023-02-19T07:39:11.502Z,4408.00
2023-02-19T07:40:13.363Z,4484.00
2023-02-19T07:41:11.866Z,4564.00
2023-02-19T07:42:11.549Z,4628.00
2023-02-19T07:43:11.478Z,4636.00
2023-02-19T07:44:11.443Z,4660.00
2023-02-19T07:45:11.479Z,4700.00
2023-02-19T07:46:12.010Z,4796.00
2023-02-19T07:47:11.460Z,4996.00
2023-02-19T07:48:11.493Z,5288.00
2023-02-19T07:49:11.476Z,5716.00
2023-02-19T07:50:14.099Z,6236.00
2023-02-19T07:51:11.637Z,6784.00
2023-02-19T07:52:11.391Z,7284.00
2023-02-19T07:53:11.314Z,7732.00
2023-02-19T07:54:11.432Z,8016.00
2023-02-19T07:55:11.462Z,8180.00
2023-02-19T07:56:11.771Z,8236.00
2023-02-19T07:57:11.962Z,8204.00
2023-02-19T07:58:11.338Z,8160.00
2023-02-19T07:59:11.350Z,8168.00
2023-02-19T08:00:11.329Z,8128.00
2023-02-19T08:01:11.622Z,8060.00
2023-02-19T08:02:11.264Z,7932.00
2023-02-19T08:03:11.272Z,7648.00
2023-02-19T08:04:11.202Z,7216.00
2023-02-19T08:05:11.184Z,6840.00
2023-02-19T08:06:11.349Z,6272.00
2023-02-19T08:07:11.218Z,5508.00
2023-02-19T08:08:12.464Z,4796.00
2023-02-19T08:09:12.445Z,4320.00
2023-02-19T08:10:11.335Z,4056.00
2023-02-19T08:11:11.347Z,3852.00
2023-02-19T08:12:11.443Z,3700.00
2023-02-19T08:13:11.254Z,3588.00
2023-02-19T08:14:11.085Z,3500.00
2023-02-19T08:15:11.157Z,3436.00
2023-02-19T08:16:18.658Z,3380.00
2023-02-19T08:17:12.057Z,3336.00
2023-02-19T08:18:12.909Z,3304.00
2023-02-19T08:19:11.002Z,3340.00
2023-02-19T08:20:12.973Z,3416.00
2023-02-19T08:21:11.350Z,3540.00
2023-02-19T08:22:10.922Z,3676.00
2023-02-19T08:23:10.844Z,3784.00
2023-02-19T08:24:10.914Z,3852.00
2023-02-19T08:25:10.893Z,3928.00
2023-02-19T08:26:10.860Z,4004.00
2023-02-19T08:27:12.479Z,4064.00
2023-02-19T08:28:11.233Z,4084.00
2023-02-19T08:29:10.863Z,4112.00
2023-02-19T08:30:11.097Z,4124.00
2023-02-19T08:31:11.213Z,4148.00
2023-02-19T08:32:10.894Z,4160.00
2023-02-19T08:33:10.884Z,4188.00
2023-02-19T08:34:10.867Z,4192.00
2023-02-19T08:35:10.822Z,4208.00
2023-02-19T08:36:10.819Z,4228.00
2023-02-19T08:37:10.803Z,4228.00
2023-02-19T08:38:10.890Z,4228.00
2023-02-19T08:39:11.231Z,4248.00
2023-02-19T08:40:10.779Z,4264.00
2023-02-19T08:41:12.468Z,4296.00
2023-02-19T08:42:13.297Z,4300.00
2023-02-19T08:43:13.108Z,4308.00
2023-02-19T08:44:11.633Z,4328.00
2023-02-19T08:45:10.887Z,4328.00
2023-02-19T08:46:10.874Z,4360.00
2023-02-19T08:47:11.868Z,4368.00
2023-02-19T08:48:12.599Z,4388.00
2023-02-19T08:49:10.845Z,4400.00
2023-02-19T08:50:11.381Z,4432.00
2023-02-19T08:51:11.315Z,4428.00
2023-02-19T08:52:10.831Z,4452.00
2023-02-19T08:53:11.434Z,4464.00
2023-02-19T08:54:10.802Z,4508.00
2023-02-19T08:55:11.463Z,4528.00
2023-02-19T08:56:10.785Z,4548.00
2023-02-19T08:57:11.634Z,4612.00
2023-02-19T08:58:10.904Z,4676.00
2023-02-19T08:59:10.945Z,4688.00
2023-02-19T09:00:10.750Z,4672.00
2023-02-19T09:01:12.590Z,4748.00
2023-02-19T09:02:12.203Z,4736.00
2023-02-19T09:03:11.792Z,4756.00
2023-02-19T09:04:12.558Z,4772.00
2023-02-19T09:05:10.529Z,4780.00
2023-02-19T09:06:11.510Z,4784.00
2023-02-19T09:07:11.436Z,4824.00
2023-02-19T09:08:12.478Z,4888.00
2023-02-19T09:09:11.418Z,4936.00
2023-02-19T09:10:12.953Z,4924.00
2023-02-19T09:11:11.447Z,4952.00
2023-02-19T09:12:11.398Z,5104.00
2023-02-19T09:13:11.303Z,5152.00
2023-02-19T09:14:12.285Z,5192.00
2023-02-19T09:15:10.909Z,5168.00
2023-02-19T09:16:16.164Z,5112.00
2023-02-19T09:17:11.120Z,5140.00
2023-02-19T09:18:10.289Z,5132.00
2023-02-19T09:19:10.386Z,5172.00
2023-02-19T09:20:11.701Z,5320.00
2023-02-19T09:21:11.031Z,5184.00
2023-02-19T09:22:10.960Z,5272.00
2023-02-19T09:23:11.840Z,5988.00
2023-02-19T09:24:11.329Z,7220.00
2023-02-19T09:25:10.428Z,8876.00
2023-02-19T09:26:12.445Z,7416.00
2023-02-19T09:27:12.283Z,6024.00
2023-02-19T09:28:11.015Z,5568.00
2023-02-19T09:29:10.912Z,6544.00
2023-02-19T09:30:11.893Z,6812.00
2023-02-19T09:31:10.843Z,5364.00
2023-02-19T09:32:11.145Z,5380.00
2023-02-19T09:33:10.911Z,6748.00
2023-02-19T09:34:16.697Z,8616.00
2023-02-19T09:35:11.007Z,8944.00
2023-02-19T09:36:12.986Z,6540.00
2023-02-19T09:37:11.047Z,5420.00
2023-02-19T09:38:10.191Z,7116.00
2023-02-19T09:39:10.422Z,8980.00
2023-02-19T09:40:11.911Z,9168.00
2023-02-19T09:41:11.841Z,7952.00
2023-02-19T09:42:11.245Z,6112.00
2023-02-19T09:43:10.964Z,6448.00
2023-02-19T09:44:10.368Z,9244.00
2023-02-19T09:45:12.446Z,10548.00
2023-02-19T09:46:12.850Z,8208.00
2023-02-19T09:47:10.726Z,8556.00
2023-02-19T09:48:11.399Z,11128.00
2023-02-19T09:49:11.042Z,14080.00
2023-02-19T09:50:11.048Z,10032.00
2023-02-19T09:51:10.435Z,8660.00
2023-02-19T09:52:11.720Z,9560.00
2023-02-19T09:53:11.077Z,9684.00
2023-02-19T09:54:13.441Z,8120.00
2023-02-19T09:55:11.737Z,8056.00
2023-02-19T09:56:13.426Z,8692.00
2023-02-19T09:57:11.256Z,7488.00
2023-02-19T09:58:09.970Z,8976.00
2023-02-19T09:59:10.227Z,8448.00
2023-02-19T10:00:10.763Z,8168.00
2023-02-19T10:01:12.272Z,9016.00
2023-02-19T10:02:10.463Z,9628.00
2023-02-19T10:03:11.951Z,8448.00
2023-02-19T10:04:11.953Z,6876.00
2023-02-19T10:05:10.253Z,7428.00
2023-02-19T10:06:11.447Z,8228.00
2023-02-19T10:07:12.328Z,9364.00
2023-02-19T10:08:10.423Z,10588.00
2023-02-19T10:09:10.884Z,10228.00
2023-02-19T10:10:09.489Z,8064.00
2023-02-19T10:11:09.986Z,8240.00
2023-02-19T10:12:10.489Z,9200.00
2023-02-19T10:13:12.190Z,10288.00
2023-02-19T10:14:10.197Z,10708.00
2023-02-19T10:15:09.619Z,10592.00
2023-02-19T10:16:10.723Z,8908.00
2023-02-19T10:17:10.932Z,7524.00
2023-02-19T10:18:11.497Z,8608.00
2023-02-19T10:19:09.609Z,10104.00
2023-02-19T10:20:10.185Z,8992.00
2023-02-19T10:21:09.787Z,6276.00
2023-02-19T10:22:11.024Z,5636.00
2023-02-19T10:23:14.822Z,5928.00
2023-02-19T10:24:10.434Z,6532.00
2023-02-19T10:25:11.155Z,7112.00
2023-02-19T10:26:09.444Z,8236.00
2023-02-19T10:27:11.058Z,9332.00
2023-02-19T10:28:09.561Z,8428.00
2023-02-19T10:29:13.423Z,7352.00
2023-02-19T10:30:09.447Z,8140.00
2023-02-19T10:31:10.549Z,7352.00
2023-02-19T10:32:09.840Z,6572.00
2023-02-19T10:33:10.342Z,6384.00
2023-02-19T10:34:10.011Z,6388.00
2023-02-19T10:35:10.702Z,6864.00
2023-02-19T10:36:10.883Z,7156.00
2023-02-19T10:37:30.273Z,7584.00
2023-02-19T10:38:09.513Z,7736.00
2023-02-19T10:39:09.139Z,9560.00
2023-02-19T10:40:10.132Z,10456.00
2023-02-19T10:41:09.947Z,11308.00
2023-02-19T10:42:10.026Z,12880.00
2023-02-19T10:43:09.912Z,11928.00
2023-02-19T10:44:10.708Z,11088.00
2023-02-19T10:45:09.188Z,12196.00
2023-02-19T10:46:11.218Z,11260.00
2023-02-19T10:47:10.057Z,9880.00
2023-02-19T10:48:09.111Z,8564.00
2023-02-19T10:49:11.317Z,9300.00
2023-02-19T10:50:12.544Z,9472.00
2023-02-19T10:51:09.968Z,8512.00
2023-02-19T10:52:11.774Z,8640.00
2023-02-19T10:53:11.142Z,9428.00
2023-02-19T10:54:09.780Z,10080.00
2023-02-19T10:55:09.004Z,8672.00
2023-02-19T10:56:10.667Z,7368.00
2023-02-19T10:57:09.448Z,8372.00
2023-02-19T10:58:12.788Z,7384.00
2023-02-19T10:59:10.184Z,6720.00
2023-02-19T11:00:09.109Z,6088.00
2023-02-19T11:01:09.535Z,6208.00
2023-02-19T11:02:10.152Z,6124.00
2023-02-19T11:03:08.806Z,5976.00
2023-02-19T11:04:09.413Z,6256.00
2023-02-19T11:05:10.702Z,6732.00
2023-02-19T11:06:11.072Z,6784.00
2023-02-19T11:07:11.233Z,7496.00
2023-02-19T11:08:09.218Z,7524.00
2023-02-19T11:09:08.770Z,7968.00
2023-02-19T11:10:10.767Z,8176.00
2023-02-19T11:11:10.992Z,7916.00
2023-02-19T11:12:09.807Z,8064.00
2023-02-19T11:13:09.125Z,7188.00
2023-02-19T11:14:10.344Z,6496.00
2023-02-19T11:15:10.701Z,5588.00
2023-02-19T11:16:10.738Z,5444.00
2023-02-19T11:17:10.135Z,5928.00
2023-02-19T11:18:08.794Z,5904.00
2023-02-19T11:19:09.946Z,5616.00
2023-02-19T11:20:08.972Z,5544.00
2023-02-19T11:21:08.679Z,5592.00
2023-02-19T11:22:09.699Z,5556.00
2023-02-19T11:23:09.573Z,5544.00
2023-02-19T11:24:09.495Z,5576.00
2023-02-19T11:25:09.656Z,5576.00
2023-02-19T11:26:11.301Z,5572.00
2023-02-19T11:27:09.014Z,5636.00
2023-02-19T11:28:09.256Z,5676.00
2023-02-19T11:29:09.879Z,5724.00
2023-02-19T11:30:09.606Z,5996.00
2023-02-19T11:31:09.612Z,6228.00
2023-02-19T11:32:09.370Z,6484.00
2023-02-19T11:33:08.993Z,6424.00
2023-02-19T11:34:08.975Z,6200.00
2023-02-19T11:35:08.495Z,5836.00
2023-02-19T11:36:08.715Z,5812.00
2023-02-19T11:37:08.990Z,5844.00
2023-02-19T11:38:10.991Z,5900.00
2023-02-19T11:39:09.654Z,6048.00
2023-02-19T11:40:09.802Z,6188.00
2023-02-19T11:41:09.045Z,6136.00
2023-02-19T11:42:09.352Z,6252.00
2023-02-19T11:43:08.762Z,6352.00
2023-02-19T11:44:08.449Z,6452.00
2023-02-19T11:45:09.434Z,6408.00
2023-02-19T11:46:08.384Z,6356.00
2023-02-19T11:47:08.805Z,6428.00
2023-02-19T11:48:08.602Z,6644.00
2023-02-19T11:49:10.018Z,6348.00
2023-02-19T11:50:08.691Z,6544.00
2023-02-19T11:51:09.589Z,7100.00
2023-02-19T11:52:08.542Z,6504.00
2023-02-19T11:53:09.544Z,6312.00
2023-02-19T11:54:09.099Z,6508.00
2023-02-19T11:55:08.907Z,6612.00
2023-02-19T11:56:08.729Z,6704.00
2023-02-19T11:57:09.712Z,6728.00
2023-02-19T11:58:09.258Z,6728.00
2023-02-19T11:59:09.037Z,6740.00
2023-02-19T12:00:08.463Z,6764.00
2023-02-19T12:01:08.580Z,6760.00
2023-02-19T12:02:09.486Z,6780.00
2023-02-19T12:03:09.442Z,6852.00
2023-02-19T12:04:09.270Z,6984.00
2023-02-19T12:05:09.211Z,6992.00
2023-02-19T12:06:09.421Z,7232.00
2023-02-19T12:07:08.528Z,7492.00
2023-02-19T12:08:08.465Z,7736.00
2023-02-19T12:09:08.116Z,8136.00
2023-02-19T12:10:07.951Z,8784.00
2023-02-19T12:11:09.562Z,9680.00
2023-02-19T12:12:07.947Z,11536.00
2023-02-19T12:13:08.645Z,13456.00
2023-02-19T12:14:08.471Z,13656.00
2023-02-19T12:15:09.208Z,16512.00
2023-02-19T12:16:08.184Z,22144.00
2023-02-19T12:17:07.750Z,26656.00
2023-02-19T12:18:09.164Z,32256.00
2023-02-19T12:19:09.790Z,29248.00
2023-02-19T12:20:08.664Z,27840.00
2023-02-19T12:21:08.593Z,28928.00
2023-02-19T12:22:07.859Z,32128.00
2023-02-19T12:23:09.172Z,30592.00
2023-02-19T12:24:07.954Z,31616.00
2023-02-19T12:25:08.371Z,37952.00
2023-02-19T12:26:09.105Z,39520.00
2023-02-19T12:27:08.300Z,36128.00
2023-02-19T12:28:09.643Z,34752.00
2023-02-19T12:29:07.761Z,36896.00
2023-02-19T12:30:08.354Z,29472.00
2023-02-19T12:31:08.000Z,35776.00
2023-02-19T12:32:08.066Z,36384.00
2023-02-19T12:33:09.397Z,36864.00
2023-02-19T12:34:08.100Z,39040.00
2023-02-19T12:35:07.925Z,39328.00
2023-02-19T12:36:07.827Z,38176.00
2023-02-19T12:37:07.602Z,37632.00
2023-02-19T12:38:07.725Z,35584.00
2023-02-19T12:39:07.645Z,35616.00
2023-02-19T12:40:07.447Z,35584.00
2023-02-19T12:41:07.662Z,34784.00
2023-02-19T12:42:08.647Z,35040.00
2023-02-19T12:43:07.622Z,34592.00
2023-02-19T12:44:08.628Z,30176.00
2023-02-19T12:45:07.607Z,28512.00
2023-02-19T12:46:07.638Z,35648.00
2023-02-19T12:47:09.028Z,38368.00
2023-02-19T12:48:10.339Z,41056.00
2023-02-19T12:49:08.623Z,41024.00
2023-02-19T12:50:11.162Z,41536.00
2023-02-19T12:51:08.612Z,39328.00
2023-02-19T12:52:07.645Z,40736.00
2023-02-19T12:53:17.150Z,41728.00